Time;durP1;ratioP1;P1;durP2;ratioP2;P2;SDS_P1;SDS_P2;PMS_P1;PMS_P2;Temp;Humidity;BMP_temperature;BMP_pressure;BME280_temperature;BME280_humidity;BME280_pressure;Samples;Min_cycle;Max_cycle;Signal;HPM_P1;HPM_P2
2022/10/31 00:00:14;;;;;;;18.58;7.22;;;9.40;99.90;;;;;;21092443;28;20063;-75
2022/10/31 00:10:16;;;;;;;22.58;6.70;;;9.90;99.90;;;;;;21078197;28;20036;-75
2022/10/31 00:20:17;;;;;;;16.23;7.20;;;9.90;99.90;;;;;;21092329;28;20039;-75
2022/10/31 00:30:18;;;;;;;10.77;5.43;;;9.70;99.90;;;;;;21091613;28;20111;-75
2022/10/31 00:40:19;;;;;;;15.10;6.35;;;9.40;99.90;;;;;;21072013;28;20093;-75
2022/10/31 00:50:20;;;;;;;17.83;8.23;;;9.30;99.90;;;;;;21056023;28;20064;-75
2022/10/31 01:00:21;;;;;;;32.93;8.73;;;9.70;99.90;;;;;;21000428;28;20580;-75
2022/10/31 01:10:22;;;;;;;30.90;10.05;;;10.00;99.90;;;;;;21001795;28;20032;-76
2022/10/31 01:20:25;;;;;;;90.88;12.38;;;10.00;99.90;;;;;;20988178;28;20028;-77
2022/10/31 01:30:28;;;;;;;66.80;11.05;;;10.00;99.90;;;;;;21003538;28;20541;-75
2022/10/31 01:40:30;;;;;;;22.70;9.73;;;9.90;99.90;;;;;;21005317;28;20031;-76
2022/10/31 01:50:35;;;;;;;32.75;8.98;;;9.70;99.90;;;;;;20985298;28;20128;-76
2022/10/31 02:00:37;;;;;;;46.70;9.57;;;9.70;99.90;;;;;;20960627;28;20033;-76
2022/10/31 02:10:38;;;;;;;59.17;11.32;;;9.80;99.90;;;;;;20993573;28;20029;-76
2022/10/31 02:20:47;;;;;;;;;;;9.70;99.90;;;;;;20976125;28;20037;-76
2022/10/31 02:31:25;;;;;;;38.35;13.95;;;9.70;99.90;;;;;;20975531;28;19912;-76
2022/10/31 02:41:41;;;;;;;35.47;16.02;;;9.80;99.90;;;;;;20996329;28;20034;-76
2022/10/31 02:51:45;;;;;;;59.88;16.75;;;9.80;99.90;;;;;;20976478;28;20029;-77
2022/10/31 03:02:05;;;;;;;;;;;9.90;99.90;;;;;;20992836;28;20494;-76
2022/10/31 03:12:21;;;;;;;58.03;15.27;;;9.90;99.90;;;;;;20981648;28;19923;-76
2022/10/31 03:22:26;;;;;;;70.75;17.02;;;9.90;99.90;;;;;;21016076;28;20054;-76
2022/10/31 03:32:42;;;;;;;36.83;15.13;;;9.80;99.90;;;;;;21019481;28;20123;-76
2022/10/31 03:42:49;;;;;;;59.15;15.00;;;9.80;99.90;;;;;;20979032;28;20036;-76
2022/10/31 03:53:30;;;;;;;33.45;12.00;;;9.70;99.90;;;;;;20994651;28;20044;-76
2022/10/31 04:03:35;;;;;;;62.53;14.13;;;9.70;99.90;;;;;;20876290;28;20037;-76
2022/10/31 04:13:39;;;;;;;25.40;13.00;;;9.50;99.90;;;;;;20976155;28;20039;-76
2022/10/31 04:23:46;;;;;;;35.47;13.32;;;9.50;99.90;;;;;;20992074;28;20406;-76
2022/10/31 04:33:55;;;;;;;35.47;13.35;;;9.40;99.90;;;;;;20975160;28;20040;-76
2022/10/31 04:43:57;;;;;;;38.42;11.60;;;9.30;99.90;;;;;;20989352;28;20037;-76
2022/10/31 04:53:58;;;;;;;17.77;9.30;;;9.30;99.90;;;;;;20985814;28;20051;-76
2022/10/31 05:04:03;;;;;;;18.65;8.38;;;9.10;99.90;;;;;;20990060;28;20283;-76
2022/10/31 05:14:06;;;;;;;11.68;7.10;;;9.00;99.90;;;;;;20971695;28;20032;-76
2022/10/31 05:24:33;;;;;;;14.18;5.75;;;9.00;99.90;;;;;;20985940;28;20045;-76
2022/10/31 05:34:34;;;;;;;11.83;4.63;;;8.90;99.90;;;;;;20982795;28;20395;-77
2022/10/31 05:44:57;;;;;;;10.10;5.50;;;8.90;99.90;;;;;;21004492;28;20067;-75
2022/10/31 05:55:19;;;;;;;18.10;5.90;;;8.60;99.90;;;;;;20985122;28;20035;-77
2022/10/31 06:05:49;;;;;;;20.73;6.93;;;8.40;99.90;;;;;;20975116;28;20115;-76
2022/10/31 06:15:50;;;;;;;12.18;6.47;;;8.30;99.90;;;;;;20966122;28;20086;-78
2022/10/31 06:25:55;;;;;;;12.05;5.53;;;8.30;99.90;;;;;;21004412;28;20039;-78
2022/10/31 06:35:56;;;;;;;;;;;8.40;99.90;;;;;;21009711;28;20036;-79
2022/10/31 06:46:01;;;;;;;8.63;5.80;;;8.30;99.90;;;;;;21015211;28;19919;-79
2022/10/31 06:56:08;;;;;;;10.57;5.83;;;8.50;99.90;;;;;;21033897;28;20025;-79
2022/10/31 07:06:15;;;;;;;12.73;6.00;;;8.60;99.90;;;;;;21031930;28;20028;-79
2022/10/31 07:16:16;;;;;;;10.27;4.63;;;9.10;99.90;;;;;;21057527;28;20032;-78
2022/10/31 07:26:18;;;;;;;9.55;4.75;;;9.30;99.90;;;;;;21008357;28;20119;-78
2022/10/31 07:36:21;;;;;;;14.48;5.00;;;9.10;99.90;;;;;;21053241;28;20445;-79
2022/10/31 07:46:24;;;;;;;7.57;4.47;;;9.50;99.90;;;;;;21071972;28;20116;-78
2022/10/31 07:56:48;;;;;;;13.02;5.20;;;9.90;99.90;;;;;;21020001;28;20516;-78
2022/10/31 08:06:50;;;;;;;7.43;4.63;;;10.00;99.90;;;;;;21012052;28;20055;-79
2022/10/31 08:17:00;;;;;;;11.53;6.07;;;9.90;99.90;;;;;;21031839;28;20032;-79
2022/10/31 08:27:09;;;;;;;7.32;5.55;;;10.20;99.90;;;;;;21028623;28;20043;-79
2022/10/31 08:37:12;;;;;;;8.07;5.65;;;10.40;99.90;;;;;;21041789;28;20025;-79
2022/10/31 08:47:17;;;;;;;10.10;6.70;;;10.80;99.90;;;;;;21056121;28;20039;-78
2022/10/31 08:57:18;;;;;;;8.73;6.57;;;10.60;99.90;;;;;;21015992;28;20033;-79
2022/10/31 09:07:21;;;;;;;7.60;6.25;;;10.80;99.90;;;;;;21039376;28;20033;-79
2022/10/31 09:17:23;;;;;;;8.50;6.00;;;11.30;99.90;;;;;;21024288;28;20062;-79
2022/10/31 09:27:46;;;;;;;9.40;6.05;;;11.90;99.90;;;;;;21053288;28;20384;-79
2022/10/31 09:38:00;;;;;;;8.80;5.80;;;11.80;99.90;;;;;;21018102;28;20032;-79
2022/10/31 09:48:32;;;;;;;11.95;6.80;;;11.70;99.90;;;;;;21047991;28;20047;-78
2022/10/31 09:58:39;;;;;;;10.20;6.97;;;12.00;99.90;;;;;;21041933;28;20040;-81
2022/10/31 10:08:40;;;;;;;16.02;8.65;;;11.90;99.90;;;;;;21020499;28;20043;-81
2022/10/31 10:19:34;;;;;;;17.25;9.00;;;12.20;99.90;;;;;;21027209;28;20040;-80
2022/10/31 10:29:52;;;;;;;13.23;8.93;;;11.50;99.90;;;;;;21058948;28;20039;-79
2022/10/31 10:40:22;;;;;;;21.20;10.38;;;11.70;99.90;;;;;;21082282;28;20507;-80
2022/10/31 10:50:32;;;;;;;17.13;10.38;;;12.00;99.90;;;;;;21016409;28;20178;-80
2022/10/31 11:00:40;;;;;;;21.63;12.52;;;11.60;99.90;;;;;;21041623;28;20084;-82
2022/10/31 11:10:41;;;;;;;15.27;9.65;;;12.10;99.90;;;;;;21010332;28;20033;-81
2022/10/31 11:20:52;;;;;;;12.53;8.37;;;13.60;99.90;;;;;;21071965;28;20032;-81
2022/10/31 11:30:57;;;;;;;17.42;9.02;;;14.60;99.90;;;;;;21114470;28;20032;-81
2022/10/31 11:41:15;;;;;;;14.60;9.63;;;14.90;99.90;;;;;;21096553;28;20101;-80
2022/10/31 11:51:28;;;;;;;13.00;8.35;;;15.70;99.90;;;;;;21095008;28;20036;-79
2022/10/31 12:01:32;;;;;;;19.85;8.10;;;17.00;99.90;;;;;;21089057;28;20028;-79
2022/10/31 12:11:57;;;;;;;16.05;8.52;;;17.40;99.90;;;;;;21109655;28;20457;-78
2022/10/31 12:22:23;;;;;;;15.30;8.15;;;17.90;99.90;;;;;;21086616;28;20063;-80
2022/10/31 12:32:46;;;;;;;16.60;8.40;;;17.40;99.90;;;;;;21097374;28;20035;-79
2022/10/31 12:42:59;;;;;;;19.63;8.75;;;17.70;99.90;;;;;;21063152;28;20035;-79
2022/10/31 12:53:19;;;;;;;16.60;9.20;;;16.80;99.90;;;;;;21062850;28;20052;-79
2022/10/31 13:03:52;;;;;;;12.60;8.30;;;17.40;99.90;;;;;;21098275;28;20024;-79
2022/10/31 13:14:07;;;;;;;19.58;8.25;;;18.60;99.90;;;;;;21089387;28;20047;-80
2022/10/31 13:24:16;;;;;;;18.60;9.10;;;18.40;99.90;;;;;;21103085;28;20028;-80
2022/10/31 13:34:38;;;;;;;14.32;8.95;;;18.20;99.90;;;;;;21082016;28;20040;-78
2022/10/31 13:44:40;;;;;;;16.17;7.80;;;18.00;99.90;;;;;;21099298;28;20031;-79
2022/10/31 13:54:42;;;;;;;14.68;8.80;;;17.00;99.90;;;;;;21083082;28;20123;-79
2022/10/31 14:04:52;;;;;;;16.95;8.27;;;16.80;99.90;;;;;;21101557;28;20028;-80
2022/10/31 14:15:18;;;;;;;19.77;8.82;;;17.70;99.90;;;;;;21097102;28;20083;-79
2022/10/31 14:25:35;;;;;;;19.73;8.95;;;16.70;99.90;;;;;;21083586;28;20053;-80
2022/10/31 14:36:04;;;;;;;18.98;8.57;;;16.80;99.90;;;;;;21088497;28;20058;-80
2022/10/31 14:46:33;;;;;;;23.80;10.02;;;17.60;99.90;;;;;;21108747;28;20032;-80
2022/10/31 14:56:37;;;;;;;21.65;9.60;;;16.80;99.90;;;;;;21079452;28;20036;-82
2022/10/31 15:07:00;;;;;;;20.55;9.07;;;17.40;99.90;;;;;;21091437;28;20474;-80
2022/10/31 15:17:04;;;;;;;20.83;8.68;;;17.40;99.90;;;;;;21081535;28;20550;-81
2022/10/31 15:27:05;;;;;;;17.85;10.52;;;17.80;99.90;;;;;;21082314;28;20031;-78
2022/10/31 15:37:14;;;;;;;21.92;9.75;;;16.30;99.90;;;;;;21082785;28;20032;-80
2022/10/31 15:47:24;;;;;;;24.48;9.20;;;15.60;99.90;;;;;;21101893;28;20536;-79
2022/10/31 15:57:26;;;;;;;23.65;10.20;;;14.90;99.90;;;;;;21099045;28;20081;-81
2022/10/31 16:07:28;;;;;;;14.95;8.43;;;14.90;99.90;;;;;;21104801;28;20035;-82
2022/10/31 16:17:30;;;;;;;17.40;9.48;;;15.10;99.90;;;;;;21126578;28;20028;-80
2022/10/31 16:27:33;;;;;;;17.95;8.18;;;14.70;99.90;;;;;;21098262;28;20058;-79
2022/10/31 16:37:37;;;;;;;17.15;9.23;;;13.80;99.90;;;;;;21108991;28;20437;-81
2022/10/31 16:47:38;;;;;;;24.38;10.30;;;13.40;99.90;;;;;;21097492;28;20043;-82
2022/10/31 16:57:43;;;;;;;18.67;9.73;;;13.10;99.90;;;;;;21110369;28;20063;-81
2022/10/31 17:07:45;;;;;;;21.23;10.07;;;13.30;99.90;;;;;;21113241;28;20379;-80
2022/10/31 17:17:46;;;;;;;17.15;10.40;;;13.10;99.90;;;;;;21064407;28;20047;-79
2022/10/31 17:27:47;;;;;;;14.37;9.30;;;12.90;99.90;;;;;;21057156;28;20032;-78
2022/10/31 17:37:49;;;;;;;;;;;12.70;99.90;;;;;;21032796;28;20082;-78
2022/10/31 17:47:51;;;;;;;22.55;10.45;;;12.60;99.90;;;;;;21044623;28;19965;-77
2022/10/31 17:57:52;;;;;;;18.15;9.90;;;12.40;99.90;;;;;;21094053;28;20028;-79
2022/10/31 18:07:53;;;;;;;18.87;9.93;;;12.30;99.90;;;;;;21091565;28;20032;-79
2022/10/31 18:17:54;;;;;;;19.07;9.87;;;11.80;99.90;;;;;;21005296;28;20075;-78
2022/10/31 18:27:55;;;;;;;19.57;10.13;;;11.90;99.90;;;;;;21010615;28;20045;-78
2022/10/31 18:37:56;;;;;;;18.20;9.43;;;12.00;99.90;;;;;;21004173;28;20028;-78
2022/10/31 18:47:57;;;;;;;20.97;11.90;;;11.60;99.90;;;;;;21008498;28;20040;-79
2022/10/31 18:57:59;;;;;;;22.90;12.83;;;11.40;99.90;;;;;;21002299;28;20042;-78
2022/10/31 19:08:00;;;;;;;22.40;12.52;;;11.20;99.90;;;;;;21058737;28;20056;-80
2022/10/31 19:18:02;;;;;;;20.37;10.30;;;11.20;99.90;;;;;;21055141;28;20086;-77
2022/10/31 19:28:03;;;;;;;22.33;10.77;;;11.20;99.90;;;;;;21009261;28;20025;-78
2022/10/31 19:38:04;;;;;;;29.03;11.83;;;10.90;99.90;;;;;;21025500;28;20116;-77
2022/10/31 19:48:04;;;;;;;15.33;8.43;;;10.70;99.90;;;;;;21035247;28;20035;-79
2022/10/31 19:58:05;;;;;;;29.20;7.33;;;10.80;99.90;;;;;;21010447;28;20167;-78
2022/10/31 20:08:14;;;;;;;11.03;6.33;;;11.10;99.90;;;;;;21009125;28;20047;-78
2022/10/31 20:18:15;;;;;;;18.25;8.60;;;11.00;99.90;;;;;;21020747;28;20037;-79
2022/10/31 20:28:16;;;;;;;12.83;7.73;;;11.10;99.90;;;;;;21017439;28;20031;-78
2022/10/31 20:38:17;;;;;;;15.18;6.15;;;11.20;99.90;;;;;;21021054;28;20387;-77
2022/10/31 20:48:19;;;;;;;15.97;7.70;;;11.20;99.90;;;;;;21001814;28;20108;-77
2022/10/31 20:58:20;;;;;;;14.27;5.82;;;11.20;99.90;;;;;;20989190;28;20025;-78
2022/10/31 21:08:21;;;;;;;21.93;8.43;;;10.90;99.90;;;;;;20938917;28;20037;-77
2022/10/31 21:18:22;;;;;;;;;;;11.20;99.90;;;;;;20972797;28;20033;-77
2022/10/31 21:28:23;;;;;;;11.73;5.37;;;10.90;99.90;;;;;;21046757;28;19929;-77
2022/10/31 21:38:23;;;;;;;16.07;6.07;;;11.10;99.90;;;;;;21049624;28;20032;-77
2022/10/31 21:48:27;;;;;;;21.70;10.40;;;11.10;99.90;;;;;;21004148;28;20028;-77
2022/10/31 21:58:28;;;;;;;29.67;12.55;;;11.20;99.90;;;;;;21048394;28;20104;-77
2022/10/31 22:08:30;;;;;;;21.08;7.57;;;11.30;99.90;;;;;;21007416;28;20045;-77
2022/10/31 22:18:31;;;;;;;16.85;7.55;;;11.20;99.90;;;;;;20995198;28;20033;-78
2022/10/31 22:28:33;;;;;;;19.60;6.93;;;11.20;99.90;;;;;;20990581;28;20036;-78
2022/10/31 22:38:39;;;;;;;19.75;7.47;;;11.10;99.90;;;;;;20992853;28;20032;-77
2022/10/31 22:48:43;;;;;;;19.95;6.75;;;10.90;99.90;;;;;;20968193;28;20477;-77
2022/10/31 22:58:44;;;;;;;18.67;6.30;;;10.70;99.90;;;;;;20968913;28;20032;-77
2022/10/31 23:08:46;;;;;;;24.27;9.10;;;10.80;99.90;;;;;;21017643;28;20058;-78
2022/10/31 23:18:46;;;;;;;26.95;10.43;;;11.00;99.90;;;;;;21040728;28;20036;-78
2022/10/31 23:28:47;;;;;;;18.17;9.70;;;11.10;99.90;;;;;;21041919;28;20486;-78
2022/10/31 23:38:49;;;;;;;24.63;10.73;;;11.10;99.90;;;;;;21055387;28;20037;-79
2022/10/31 23:48:52;;;;;;;20.17;10.25;;;11.10;99.90;;;;;;21035819;28;20116;-79
2022/10/31 23:58:53;;;;;;;23.48;11.85;;;11.00;99.90;;;;;;21085622;28;20055;-80
